sensor_id;sensor_type;location;lat;lon;timestamp;P1;durP1;ratioP1;P2;durP2;ratioP2
34828;SDS011;21042;47.620;12.188;2024-03-23T00:56:14;5.40;;;2.72;;
34828;SDS011;21042;47.620;12.188;2024-03-23T00:58:40;5.47;;;2.65;;
34828;SDS011;21042;47.620;12.188;2024-03-23T01:01:06;6.20;;;2.75;;
34828;SDS011;21042;47.620;12.188;2024-03-23T01:03:32;2.65;;;1.88;;
34828;SDS011;21042;47.620;12.188;2024-03-23T01:06:01;5.03;;;2.70;;
34828;SDS011;21042;47.620;12.188;2024-03-23T01:08:28;3.85;;;2.58;;
34828;SDS011;21042;47.620;12.188;2024-03-23T01:10:57;3.88;;;2.15;;
34828;SDS011;21042;47.620;12.188;2024-03-23T01:13:24;3.40;;;2.60;;
34828;SDS011;21042;47.620;12.188;2024-03-23T01:15:51;4.75;;;2.17;;
34828;SDS011;21042;47.620;12.188;2024-03-23T01:18:18;3.83;;;2.40;;
34828;SDS011;21042;47.620;12.188;2024-03-23T01:20:44;3.67;;;2.20;;
34828;SDS011;21042;47.620;12.188;2024-03-23T01:23:10;4.35;;;2.22;;
34828;SDS011;21042;47.620;12.188;2024-03-23T01:25:36;3.92;;;2.20;;
34828;SDS011;21042;47.620;12.188;2024-03-23T01:28:02;2.80;;;1.80;;
34828;SDS011;21042;47.620;12.188;2024-03-23T01:30:28;4.10;;;2.10;;
34828;SDS011;21042;47.620;12.188;2024-03-23T01:32:55;2.15;;;1.80;;
34828;SDS011;21042;47.620;12.188;2024-03-23T01:35:22;4.30;;;2.10;;
34828;SDS011;21042;47.620;12.188;2024-03-23T01:41:51;2.72;;;1.88;;
34828;SDS011;21042;47.620;12.188;2024-03-23T01:44:28;4.15;;;2.08;;
34828;SDS011;21042;47.620;12.188;2024-03-23T01:47:03;3.67;;;1.77;;
34828;SDS011;21042;47.620;12.188;2024-03-23T01:49:35;3.35;;;1.95;;
34828;SDS011;21042;47.620;12.188;2024-03-23T01:52:02;7.95;;;2.78;;
34828;SDS011;21042;47.620;12.188;2024-03-23T01:54:42;4.18;;;2.33;;
34828;SDS011;21042;47.620;12.188;2024-03-23T01:57:15;6.40;;;2.33;;
34828;SDS011;21042;47.620;12.188;2024-03-23T02:00:04;3.08;;;1.77;;
34828;SDS011;21042;47.620;12.188;2024-03-23T02:02:47;2.88;;;1.95;;
34828;SDS011;21042;47.620;12.188;2024-03-23T02:05:24;3.10;;;2.05;;
34828;SDS011;21042;47.620;12.188;2024-03-23T02:07:53;6.10;;;2.10;;
34828;SDS011;21042;47.620;12.188;2024-03-23T02:10:24;7.93;;;2.45;;
34828;SDS011;21042;47.620;12.188;2024-03-23T02:13:09;7.55;;;3.08;;
34828;SDS011;21042;47.620;12.188;2024-03-23T02:15:45;6.75;;;3.38;;
34828;SDS011;21042;47.620;12.188;2024-03-23T02:18:19;5.75;;;2.80;;
34828;SDS011;21042;47.620;12.188;2024-03-23T02:20:54;4.47;;;2.55;;
34828;SDS011;21042;47.620;12.188;2024-03-23T02:23:27;4.93;;;1.80;;
34828;SDS011;21042;47.620;12.188;2024-03-23T02:26:06;4.82;;;2.38;;
34828;SDS011;21042;47.620;12.188;2024-03-23T02:28:44;5.80;;;2.77;;
34828;SDS011;21042;47.620;12.188;2024-03-23T02:31:22;3.88;;;2.78;;
34828;SDS011;21042;47.620;12.188;2024-03-23T02:34:01;3.67;;;2.65;;
34828;SDS011;21042;47.620;12.188;2024-03-23T02:36:37;5.82;;;2.65;;
34828;SDS011;21042;47.620;12.188;2024-03-23T02:39:03;5.60;;;2.97;;
34828;SDS011;21042;47.620;12.188;2024-03-23T02:41:42;4.13;;;2.40;;
34828;SDS011;21042;47.620;12.188;2024-03-23T02:44:15;4.07;;;2.58;;
34828;SDS011;21042;47.620;12.188;2024-03-23T02:47:03;9.57;;;3.58;;
34828;SDS011;21042;47.620;12.188;2024-03-23T02:49:34;5.03;;;2.88;;
34828;SDS011;21042;47.620;12.188;2024-03-23T02:52:01;7.55;;;3.05;;
34828;SDS011;21042;47.620;12.188;2024-03-23T02:54:27;5.25;;;2.47;;
34828;SDS011;21042;47.620;12.188;2024-03-23T02:56:53;8.40;;;3.28;;
34828;SDS011;21042;47.620;12.188;2024-03-23T02:59:19;5.05;;;3.38;;
34828;SDS011;21042;47.620;12.188;2024-03-23T03:01:45;5.40;;;3.08;;
34828;SDS011;21042;47.620;12.188;2024-03-23T03:04:13;5.57;;;3.85;;
34828;SDS011;21042;47.620;12.188;2024-03-23T03:06:39;5.30;;;3.28;;
34828;SDS011;21042;47.620;12.188;2024-03-23T03:09:09;4.68;;;2.55;;
34828;SDS011;21042;47.620;12.188;2024-03-23T03:11:35;7.22;;;2.60;;
34828;SDS011;21042;47.620;12.188;2024-03-23T03:14:01;9.73;;;3.38;;
34828;SDS011;21042;47.620;12.188;2024-03-23T03:16:27;5.72;;;3.75;;
34828;SDS011;21042;47.620;12.188;2024-03-23T03:18:53;6.90;;;3.58;;
34828;SDS011;21042;47.620;12.188;2024-03-23T03:21:19;10.27;;;3.40;;
34828;SDS011;21042;47.620;12.188;2024-03-23T03:23:45;4.40;;;3.17;;
34828;SDS011;21042;47.620;12.188;2024-03-23T03:26:16;5.80;;;2.65;;
34828;SDS011;21042;47.620;12.188;2024-03-23T03:28:42;2.47;;;2.00;;
34828;SDS011;21042;47.620;12.188;2024-03-23T03:31:15;5.90;;;2.47;;
34828;SDS011;21042;47.620;12.188;2024-03-23T03:33:42;2.67;;;1.92;;
34828;SDS011;21042;47.620;12.188;2024-03-23T03:36:09;6.63;;;2.20;;
34828;SDS011;21042;47.620;12.188;2024-03-23T03:38:35;4.80;;;2.37;;
34828;SDS011;21042;47.620;12.188;2024-03-23T03:41:02;4.30;;;3.00;;
34828;SDS011;21042;47.620;12.188;2024-03-23T03:43:28;5.60;;;3.25;;
34828;SDS011;21042;47.620;12.188;2024-03-23T03:45:55;6.72;;;2.90;;
34828;SDS011;21042;47.620;12.188;2024-03-23T03:48:24;4.43;;;2.83;;
34828;SDS011;21042;47.620;12.188;2024-03-23T03:50:51;7.72;;;3.38;;
34828;SDS011;21042;47.620;12.188;2024-03-23T03:53:18;5.88;;;2.25;;
34828;SDS011;21042;47.620;12.188;2024-03-23T03:55:44;7.37;;;2.47;;
34828;SDS011;21042;47.620;12.188;2024-03-23T03:58:10;4.03;;;2.30;;
34828;SDS011;21042;47.620;12.188;2024-03-23T04:00:37;3.50;;;2.08;;
34828;SDS011;21042;47.620;12.188;2024-03-23T04:03:03;5.38;;;2.13;;
34828;SDS011;21042;47.620;12.188;2024-03-23T04:05:29;7.63;;;3.83;;
34828;SDS011;21042;47.620;12.188;2024-03-23T04:07:55;6.38;;;3.17;;
34828;SDS011;21042;47.620;12.188;2024-03-23T04:10:21;3.72;;;2.63;;
34828;SDS011;21042;47.620;12.188;2024-03-23T04:12:47;7.75;;;3.58;;
34828;SDS011;21042;47.620;12.188;2024-03-23T04:15:14;4.75;;;3.42;;
34828;SDS011;21042;47.620;12.188;2024-03-23T04:17:40;6.25;;;3.75;;
34828;SDS011;21042;47.620;12.188;2024-03-23T04:20:08;6.95;;;3.67;;
34828;SDS011;21042;47.620;12.188;2024-03-23T04:22:45;6.77;;;3.80;;
34828;SDS011;21042;47.620;12.188;2024-03-23T04:25:23;9.30;;;5.18;;
34828;SDS011;21042;47.620;12.188;2024-03-23T04:27:50;14.85;;;6.40;;
34828;SDS011;21042;47.620;12.188;2024-03-23T04:30:37;8.73;;;4.35;;
34828;SDS011;21042;47.620;12.188;2024-03-23T04:33:10;8.68;;;4.97;;
34828;SDS011;21042;47.620;12.188;2024-03-23T04:35:37;9.43;;;4.30;;
34828;SDS011;21042;47.620;12.188;2024-03-23T04:41:03;7.72;;;4.22;;
34828;SDS011;21042;47.620;12.188;2024-03-23T04:43:33;8.65;;;4.38;;
34828;SDS011;21042;47.620;12.188;2024-03-23T04:46:35;3.90;;;2.10;;
34828;SDS011;21042;47.620;12.188;2024-03-23T04:49:14;3.00;;;2.30;;
34828;SDS011;21042;47.620;12.188;2024-03-23T04:51:54;3.47;;;2.30;;
34828;SDS011;21042;47.620;12.188;2024-03-23T04:54:42;3.78;;;2.42;;
34828;SDS011;21042;47.620;12.188;2024-03-23T04:57:12;5.38;;;2.97;;
34828;SDS011;21042;47.620;12.188;2024-03-23T04:59:48;5.30;;;2.97;;
34828;SDS011;21042;47.620;12.188;2024-03-23T05:02:24;5.78;;;2.85;;
34828;SDS011;21042;47.620;12.188;2024-03-23T05:04:51;3.85;;;2.63;;
34828;SDS011;21042;47.620;12.188;2024-03-23T05:07:16;3.65;;;2.13;;
34828;SDS011;21042;47.620;12.188;2024-03-23T05:09:42;5.22;;;2.38;;
34828;SDS011;21042;47.620;12.188;2024-03-23T05:12:08;3.53;;;2.10;;
34828;SDS011;21042;47.620;12.188;2024-03-23T05:14:34;2.40;;;2.03;;
34828;SDS011;21042;47.620;12.188;2024-03-23T05:17:00;2.22;;;2.00;;
34828;SDS011;21042;47.620;12.188;2024-03-23T05:19:26;3.60;;;2.40;;
34828;SDS011;21042;47.620;12.188;2024-03-23T05:21:52;6.50;;;2.95;;
34828;SDS011;21042;47.620;12.188;2024-03-23T05:24:18;5.82;;;3.35;;
34828;SDS011;21042;47.620;12.188;2024-03-23T05:26:44;10.55;;;4.38;;
34828;SDS011;21042;47.620;12.188;2024-03-23T05:29:10;5.45;;;3.50;;
34828;SDS011;21042;47.620;12.188;2024-03-23T05:31:38;7.45;;;3.95;;
34828;SDS011;21042;47.620;12.188;2024-03-23T05:34:07;7.88;;;3.85;;
34828;SDS011;21042;47.620;12.188;2024-03-23T05:36:33;8.88;;;4.85;;
34828;SDS011;21042;47.620;12.188;2024-03-23T05:38:59;8.75;;;4.35;;
34828;SDS011;21042;47.620;12.188;2024-03-23T05:41:24;6.72;;;3.50;;
34828;SDS011;21042;47.620;12.188;2024-03-23T05:43:50;6.47;;;4.18;;
34828;SDS011;21042;47.620;12.188;2024-03-23T05:46:16;8.27;;;3.65;;
34828;SDS011;21042;47.620;12.188;2024-03-23T05:48:43;21.30;;;8.60;;
34828;SDS011;21042;47.620;12.188;2024-03-23T05:51:09;12.05;;;3.85;;
34828;SDS011;21042;47.620;12.188;2024-03-23T05:53:34;8.13;;;3.47;;
34828;SDS011;21042;47.620;12.188;2024-03-23T05:56:01;10.82;;;4.32;;
34828;SDS011;21042;47.620;12.188;2024-03-23T05:58:32;18.13;;;6.28;;
34828;SDS011;21042;47.620;12.188;2024-03-23T06:01:01;12.25;;;4.95;;
34828;SDS011;21042;47.620;12.188;2024-03-23T06:03:27;13.00;;;5.32;;
34828;SDS011;21042;47.620;12.188;2024-03-23T06:05:54;11.30;;;4.60;;
34828;SDS011;21042;47.620;12.188;2024-03-23T06:08:21;10.13;;;3.92;;
34828;SDS011;21042;47.620;12.188;2024-03-23T06:10:47;5.30;;;3.47;;
34828;SDS011;21042;47.620;12.188;2024-03-23T06:13:13;6.32;;;3.70;;
34828;SDS011;21042;47.620;12.188;2024-03-23T06:15:39;6.82;;;3.92;;
34828;SDS011;21042;47.620;12.188;2024-03-23T06:18:05;6.38;;;3.58;;
34828;SDS011;21042;47.620;12.188;2024-03-23T06:22:59;6.05;;;3.80;;
34828;SDS011;21042;47.620;12.188;2024-03-23T06:25:28;7.55;;;4.28;;
34828;SDS011;21042;47.620;12.188;2024-03-23T06:27:54;9.50;;;4.07;;
34828;SDS011;21042;47.620;12.188;2024-03-23T06:30:21;7.20;;;4.13;;
34828;SDS011;21042;47.620;12.188;2024-03-23T06:32:47;10.32;;;4.78;;
34828;SDS011;21042;47.620;12.188;2024-03-23T06:35:12;6.32;;;4.15;;
34828;SDS011;21042;47.620;12.188;2024-03-23T06:37:38;4.32;;;3.22;;
34828;SDS011;21042;47.620;12.188;2024-03-23T06:40:06;5.72;;;3.35;;
34828;SDS011;21042;47.620;12.188;2024-03-23T06:42:35;5.07;;;3.20;;
34828;SDS011;21042;47.620;12.188;2024-03-23T06:45:02;6.82;;;3.88;;
34828;SDS011;21042;47.620;12.188;2024-03-23T06:47:30;7.30;;;3.42;;
34828;SDS011;21042;47.620;12.188;2024-03-23T06:49:56;8.70;;;3.95;;
34828;SDS011;21042;47.620;12.188;2024-03-23T06:52:22;6.28;;;3.97;;
34828;SDS011;21042;47.620;12.188;2024-03-23T06:54:47;6.45;;;3.45;;
34828;SDS011;21042;47.620;12.188;2024-03-23T06:57:13;6.68;;;4.00;;
34828;SDS011;21042;47.620;12.188;2024-03-23T06:59:39;6.00;;;3.58;;
34828;SDS011;21042;47.620;12.188;2024-03-23T07:02:05;5.90;;;2.72;;
34828;SDS011;21042;47.620;12.188;2024-03-23T07:04:34;5.78;;;4.00;;
34828;SDS011;21042;47.620;12.188;2024-03-23T07:07:00;5.80;;;3.15;;
34828;SDS011;21042;47.620;12.188;2024-03-23T07:09:27;5.18;;;3.30;;
34828;SDS011;21042;47.620;12.188;2024-03-23T07:11:54;6.82;;;3.67;;
34828;SDS011;21042;47.620;12.188;2024-03-23T07:14:21;5.05;;;3.42;;
34828;SDS011;21042;47.620;12.188;2024-03-23T07:16:47;6.50;;;3.30;;
34828;SDS011;21042;47.620;12.188;2024-03-23T07:19:15;5.35;;;3.60;;
34828;SDS011;21042;47.620;12.188;2024-03-23T07:21:44;7.20;;;3.08;;
34828;SDS011;21042;47.620;12.188;2024-03-23T07:24:10;5.95;;;2.67;;
34828;SDS011;21042;47.620;12.188;2024-03-23T07:26:36;4.73;;;2.90;;
34828;SDS011;21042;47.620;12.188;2024-03-23T07:29:03;5.00;;;3.20;;
34828;SDS011;21042;47.620;12.188;2024-03-23T07:31:30;6.53;;;3.40;;
34828;SDS011;21042;47.620;12.188;2024-03-23T07:33:55;5.43;;;3.03;;
34828;SDS011;21042;47.620;12.188;2024-03-23T07:36:21;3.50;;;2.65;;
34828;SDS011;21042;47.620;12.188;2024-03-23T07:38:47;6.57;;;2.70;;
34828;SDS011;21042;47.620;12.188;2024-03-23T07:41:17;3.13;;;2.47;;
34828;SDS011;21042;47.620;12.188;2024-03-23T07:43:44;7.25;;;3.00;;
34828;SDS011;21042;47.620;12.188;2024-03-23T07:46:11;5.50;;;3.10;;
34828;SDS011;21042;47.620;12.188;2024-03-23T07:48:37;6.00;;;2.83;;
34828;SDS011;21042;47.620;12.188;2024-03-23T07:51:04;3.47;;;2.67;;
34828;SDS011;21042;47.620;12.188;2024-03-23T07:53:34;7.35;;;3.10;;
34828;SDS011;21042;47.620;12.188;2024-03-23T07:56:02;4.00;;;2.72;;
34828;SDS011;21042;47.620;12.188;2024-03-23T07:58:32;5.22;;;2.50;;
34828;SDS011;21042;47.620;12.188;2024-03-23T08:01:05;3.50;;;2.70;;
34828;SDS011;21042;47.620;12.188;2024-03-23T08:03:36;3.80;;;2.37;;
34828;SDS011;21042;47.620;12.188;2024-03-23T08:06:06;5.15;;;2.80;;
34828;SDS011;21042;47.620;12.188;2024-03-23T08:08:36;4.13;;;2.65;;
34828;SDS011;21042;47.620;12.188;2024-03-23T08:11:02;6.85;;;3.05;;
34828;SDS011;21042;47.620;12.188;2024-03-23T08:13:29;5.10;;;2.75;;
34828;SDS011;21042;47.620;12.188;2024-03-23T08:15:59;5.67;;;3.23;;
34828;SDS011;21042;47.620;12.188;2024-03-23T08:18:25;4.68;;;2.60;;
34828;SDS011;21042;47.620;12.188;2024-03-23T08:20:55;5.82;;;3.17;;
34828;SDS011;21042;47.620;12.188;2024-03-23T08:23:28;4.60;;;2.30;;
34828;SDS011;21042;47.620;12.188;2024-03-23T08:29:55;4.20;;;1.92;;
34828;SDS011;21042;47.620;12.188;2024-03-23T08:32:20;2.90;;;1.80;;
34828;SDS011;21042;47.620;12.188;2024-03-23T08:34:46;3.17;;;1.40;;
34828;SDS011;21042;47.620;12.188;2024-03-23T08:41:12;4.38;;;2.00;;
34828;SDS011;21042;47.620;12.188;2024-03-23T08:43:38;3.80;;;1.48;;
34828;SDS011;21042;47.620;12.188;2024-03-23T08:46:06;4.45;;;2.13;;
34828;SDS011;21042;47.620;12.188;2024-03-23T08:48:36;4.80;;;1.65;;
34828;SDS011;21042;47.620;12.188;2024-03-23T08:51:11;2.65;;;1.58;;
34828;SDS011;21042;47.620;12.188;2024-03-23T08:53:38;5.85;;;1.83;;
34828;SDS011;21042;47.620;12.188;2024-03-23T08:56:05;2.55;;;1.85;;
34828;SDS011;21042;47.620;12.188;2024-03-23T08:58:32;4.00;;;2.10;;
34828;SDS011;21042;47.620;12.188;2024-03-23T09:01:05;2.92;;;1.83;;
34828;SDS011;21042;47.620;12.188;2024-03-23T09:03:36;3.00;;;1.73;;
34828;SDS011;21042;47.620;12.188;2024-03-23T09:06:02;7.32;;;1.92;;
34828;SDS011;21042;47.620;12.188;2024-03-23T09:08:35;2.63;;;2.00;;
34828;SDS011;21042;47.620;12.188;2024-03-23T09:11:09;4.67;;;1.60;;
34828;SDS011;21042;47.620;12.188;2024-03-23T09:13:36;2.63;;;2.15;;
34828;SDS011;21042;47.620;12.188;2024-03-23T09:16:03;2.92;;;1.60;;
34828;SDS011;21042;47.620;12.188;2024-03-23T09:18:34;3.75;;;1.50;;
34828;SDS011;21042;47.620;12.188;2024-03-23T09:21:01;3.78;;;1.40;;
34828;SDS011;21042;47.620;12.188;2024-03-23T09:23:28;2.75;;;1.35;;
34828;SDS011;21042;47.620;12.188;2024-03-23T09:25:53;3.25;;;1.63;;
34828;SDS011;21042;47.620;12.188;2024-03-23T09:28:19;2.63;;;1.50;;
34828;SDS011;21042;47.620;12.188;2024-03-23T09:30:45;3.45;;;1.50;;
34828;SDS011;21042;47.620;12.188;2024-03-23T09:33:11;2.25;;;1.55;;
34828;SDS011;21042;47.620;12.188;2024-03-23T09:35:41;2.17;;;1.60;;
34828;SDS011;21042;47.620;12.188;2024-03-23T09:38:08;2.72;;;1.55;;
34828;SDS011;21042;47.620;12.188;2024-03-23T09:40:35;1.92;;;0.70;;
34828;SDS011;21042;47.620;12.188;2024-03-23T09:43:07;2.85;;;0.57;;
34828;SDS011;21042;47.620;12.188;2024-03-23T09:45:35;1.13;;;0.60;;
34828;SDS011;21042;47.620;12.188;2024-03-23T09:48:06;1.52;;;0.50;;
34828;SDS011;21042;47.620;12.188;2024-03-23T09:50:35;2.25;;;0.60;;
34828;SDS011;21042;47.620;12.188;2024-03-23T09:53:06;1.00;;;0.40;;
34828;SDS011;21042;47.620;12.188;2024-03-23T09:55:32;0.88;;;0.55;;
34828;SDS011;21042;47.620;12.188;2024-03-23T09:58:00;1.13;;;0.70;;
34828;SDS011;21042;47.620;12.188;2024-03-23T10:00:27;1.75;;;0.70;;
34828;SDS011;21042;47.620;12.188;2024-03-23T10:02:55;1.08;;;0.52;;
34828;SDS011;21042;47.620;12.188;2024-03-23T10:05:21;3.03;;;1.13;;
34828;SDS011;21042;47.620;12.188;2024-03-23T10:10:15;3.08;;;0.68;;
34828;SDS011;21042;47.620;12.188;2024-03-23T10:12:45;0.70;;;0.57;;
34828;SDS011;21042;47.620;12.188;2024-03-23T10:15:18;0.70;;;0.50;;
34828;SDS011;21042;47.620;12.188;2024-03-23T10:17:45;0.98;;;0.50;;
34828;SDS011;21042;47.620;12.188;2024-03-23T10:20:11;1.40;;;0.55;;
34828;SDS011;21042;47.620;12.188;2024-03-23T10:22:37;3.72;;;0.93;;
34828;SDS011;21042;47.620;12.188;2024-03-23T10:25:07;1.00;;;0.50;;
34828;SDS011;21042;47.620;12.188;2024-03-23T10:27:34;0.75;;;0.40;;
34828;SDS011;21042;47.620;12.188;2024-03-23T10:30:10;0.75;;;0.40;;
34828;SDS011;21042;47.620;12.188;2024-03-23T10:32:37;0.97;;;0.80;;
34828;SDS011;21042;47.620;12.188;2024-03-23T10:37:47;1.85;;;0.70;;
34828;SDS011;21042;47.620;12.188;2024-03-23T10:40:15;0.63;;;0.35;;
34828;SDS011;21042;47.620;12.188;2024-03-23T10:42:41;0.55;;;0.35;;
34828;SDS011;21042;47.620;12.188;2024-03-23T10:45:08;0.73;;;0.40;;
34828;SDS011;21042;47.620;12.188;2024-03-23T10:47:34;0.57;;;0.32;;
34828;SDS011;21042;47.620;12.188;2024-03-23T10:50:01;0.63;;;0.40;;
34828;SDS011;21042;47.620;12.188;2024-03-23T10:52:33;0.60;;;0.30;;
34828;SDS011;21042;47.620;12.188;2024-03-23T10:55:00;1.98;;;0.55;;
34828;SDS011;21042;47.620;12.188;2024-03-23T10:57:34;0.75;;;0.52;;
34828;SDS011;21042;47.620;12.188;2024-03-23T11:00:06;0.40;;;0.40;;
34828;SDS011;21042;47.620;12.188;2024-03-23T11:02:34;1.90;;;0.20;;
34828;SDS011;21042;47.620;12.188;2024-03-23T11:04:59;0.20;;;0.10;;
34828;SDS011;21042;47.620;12.188;2024-03-23T11:07:29;0.17;;;0.17;;
34828;SDS011;21042;47.620;12.188;2024-03-23T11:09:56;0.10;;;0.10;;
34828;SDS011;21042;47.620;12.188;2024-03-23T11:17:20;0.25;;;0.20;;
34828;SDS011;21042;47.620;12.188;2024-03-23T11:20:00;2.42;;;0.00;;
34828;SDS011;21042;47.620;12.188;2024-03-23T11:22:37;0.00;;;0.00;;
34828;SDS011;21042;47.620;12.188;2024-03-23T11:25:21;2.38;;;0.10;;
34828;SDS011;21042;47.620;12.188;2024-03-23T11:27:51;0.10;;;0.10;;
34828;SDS011;21042;47.620;12.188;2024-03-23T11:30:22;0.10;;;0.10;;
34828;SDS011;21042;47.620;12.188;2024-03-23T11:32:50;0.20;;;0.10;;
34828;SDS011;21042;47.620;12.188;2024-03-23T11:35:28;0.10;;;0.10;;
34828;SDS011;21042;47.620;12.188;2024-03-23T11:38:15;0.10;;;0.10;;
34828;SDS011;21042;47.620;12.188;2024-03-23T11:40:46;0.30;;;0.13;;
34828;SDS011;21042;47.620;12.188;2024-03-23T11:43:14;1.55;;;0.00;;
34828;SDS011;21042;47.620;12.188;2024-03-23T11:48:15;0.20;;;0.08;;
34828;SDS011;21042;47.620;12.188;2024-03-23T11:50:45;0.17;;;0.10;;
34828;SDS011;21042;47.620;12.188;2024-03-23T12:01:12;2.58;;;0.10;;
34828;SDS011;21042;47.620;12.188;2024-03-23T12:03:38;1.88;;;0.15;;
34828;SDS011;21042;47.620;12.188;2024-03-23T12:06:04;0.52;;;0.20;;
34828;SDS011;21042;47.620;12.188;2024-03-23T12:08:34;0.00;;;0.00;;
34828;SDS011;21042;47.620;12.188;2024-03-23T12:11:10;1.75;;;0.10;;
34828;SDS011;21042;47.620;12.188;2024-03-23T12:13:38;3.60;;;0.30;;
34828;SDS011;21042;47.620;12.188;2024-03-23T12:16:10;0.45;;;0.10;;
34828;SDS011;21042;47.620;12.188;2024-03-23T12:18:37;0.73;;;0.10;;
34828;SDS011;21042;47.620;12.188;2024-03-23T12:21:04;0.68;;;0.20;;
34828;SDS011;21042;47.620;12.188;2024-03-23T12:23:29;0.73;;;0.20;;
34828;SDS011;21042;47.620;12.188;2024-03-23T12:25:55;1.65;;;0.20;;
34828;SDS011;21042;47.620;12.188;2024-03-23T12:28:21;3.17;;;0.45;;
34828;SDS011;21042;47.620;12.188;2024-03-23T12:30:47;4.50;;;0.40;;
34828;SDS011;21042;47.620;12.188;2024-03-23T12:33:13;2.20;;;0.20;;
34828;SDS011;21042;47.620;12.188;2024-03-23T12:35:39;1.65;;;0.25;;
34828;SDS011;21042;47.620;12.188;2024-03-23T12:38:04;0.47;;;0.35;;
34828;SDS011;21042;47.620;12.188;2024-03-23T12:40:30;3.47;;;0.60;;
34828;SDS011;21042;47.620;12.188;2024-03-23T12:42:56;2.70;;;0.77;;
34828;SDS011;21042;47.620;12.188;2024-03-23T12:45:22;1.63;;;0.40;;
34828;SDS011;21042;47.620;12.188;2024-03-23T12:47:48;0.32;;;0.30;;
34828;SDS011;21042;47.620;12.188;2024-03-23T12:50:14;0.85;;;0.50;;
34828;SDS011;21042;47.620;12.188;2024-03-23T12:52:40;0.60;;;0.30;;
34828;SDS011;21042;47.620;12.188;2024-03-23T12:55:06;0.80;;;0.32;;
34828;SDS011;21042;47.620;12.188;2024-03-23T12:57:32;0.80;;;0.52;;
34828;SDS011;21042;47.620;12.188;2024-03-23T12:59:59;5.35;;;0.52;;
34828;SDS011;21042;47.620;12.188;2024-03-23T13:02:25;0.68;;;0.50;;
34828;SDS011;21042;47.620;12.188;2024-03-23T13:04:51;2.45;;;0.45;;
34828;SDS011;21042;47.620;12.188;2024-03-23T13:07:19;2.13;;;0.35;;
34828;SDS011;21042;47.620;12.188;2024-03-23T13:09:46;0.30;;;0.20;;
34828;SDS011;21042;47.620;12.188;2024-03-23T13:12:11;1.38;;;0.35;;
34828;SDS011;21042;47.620;12.188;2024-03-23T13:14:38;0.35;;;0.20;;
34828;SDS011;21042;47.620;12.188;2024-03-23T13:17:04;1.55;;;0.20;;
34828;SDS011;21042;47.620;12.188;2024-03-23T13:19:31;1.97;;;0.30;;
34828;SDS011;21042;47.620;12.188;2024-03-23T13:21:57;6.13;;;0.50;;
34828;SDS011;21042;47.620;12.188;2024-03-23T13:24:25;1.00;;;0.52;;
34828;SDS011;21042;47.620;12.188;2024-03-23T13:29:18;1.42;;;0.80;;
34828;SDS011;21042;47.620;12.188;2024-03-23T13:31:44;1.40;;;0.63;;
34828;SDS011;21042;47.620;12.188;2024-03-23T13:34:11;1.43;;;0.63;;
34828;SDS011;21042;47.620;12.188;2024-03-23T13:39:04;0.20;;;0.20;;
34828;SDS011;21042;47.620;12.188;2024-03-23T13:41:37;0.63;;;0.60;;
34828;SDS011;21042;47.620;12.188;2024-03-23T13:44:03;2.03;;;1.17;;
34828;SDS011;21042;47.620;12.188;2024-03-23T13:46:28;1.13;;;0.60;;
34828;SDS011;21042;47.620;12.188;2024-03-23T13:48:54;2.03;;;1.00;;
34828;SDS011;21042;47.620;12.188;2024-03-23T13:51:23;1.45;;;1.05;;
34828;SDS011;21042;47.620;12.188;2024-03-23T13:53:52;2.08;;;0.85;;
34828;SDS011;21042;47.620;12.188;2024-03-23T13:56:19;2.92;;;1.08;;
34828;SDS011;21042;47.620;12.188;2024-03-23T13:58:46;3.83;;;1.60;;
34828;SDS011;21042;47.620;12.188;2024-03-23T14:01:12;5.55;;;2.33;;
34828;SDS011;21042;47.620;12.188;2024-03-23T14:06:06;10.57;;;5.55;;
34828;SDS011;21042;47.620;12.188;2024-03-23T14:08:33;19.13;;;7.60;;
34828;SDS011;21042;47.620;12.188;2024-03-23T14:11:08;15.27;;;8.25;;
34828;SDS011;21042;47.620;12.188;2024-03-23T14:13:34;19.48;;;11.95;;
34828;SDS011;21042;47.620;12.188;2024-03-23T14:16:00;6.82;;;4.00;;
34828;SDS011;21042;47.620;12.188;2024-03-23T14:18:27;12.45;;;5.72;;
34828;SDS011;21042;47.620;12.188;2024-03-23T14:20:56;12.50;;;5.28;;
34828;SDS011;21042;47.620;12.188;2024-03-23T14:23:27;8.52;;;5.32;;
34828;SDS011;21042;47.620;12.188;2024-03-23T14:25:55;7.10;;;3.53;;
34828;SDS011;21042;47.620;12.188;2024-03-23T14:28:21;7.13;;;4.70;;
34828;SDS011;21042;47.620;12.188;2024-03-23T14:30:48;15.35;;;6.88;;
34828;SDS011;21042;47.620;12.188;2024-03-23T14:33:15;14.05;;;7.40;;
34828;SDS011;21042;47.620;12.188;2024-03-23T14:35:41;8.77;;;4.73;;
34828;SDS011;21042;47.620;12.188;2024-03-23T14:38:07;3.83;;;2.42;;
34828;SDS011;21042;47.620;12.188;2024-03-23T14:40:33;10.20;;;4.50;;
34828;SDS011;21042;47.620;12.188;2024-03-23T14:42:59;17.10;;;7.32;;
34828;SDS011;21042;47.620;12.188;2024-03-23T14:45:25;16.85;;;7.47;;
34828;SDS011;21042;47.620;12.188;2024-03-23T14:47:51;10.32;;;4.93;;
34828;SDS011;21042;47.620;12.188;2024-03-23T14:50:17;7.20;;;3.15;;
34828;SDS011;21042;47.620;12.188;2024-03-23T14:52:44;1.95;;;1.05;;
34828;SDS011;21042;47.620;12.188;2024-03-23T14:55:13;1.83;;;1.20;;
34828;SDS011;21042;47.620;12.188;2024-03-23T14:57:40;2.70;;;1.10;;
34828;SDS011;21042;47.620;12.188;2024-03-23T15:00:07;2.92;;;1.23;;
34828;SDS011;21042;47.620;12.188;2024-03-23T15:05:00;3.38;;;1.38;;
34828;SDS011;21042;47.620;12.188;2024-03-23T15:07:26;1.52;;;1.02;;
34828;SDS011;21042;47.620;12.188;2024-03-23T15:09:53;3.05;;;1.33;;
34828;SDS011;21042;47.620;12.188;2024-03-23T15:12:19;4.07;;;2.40;;
34828;SDS011;21042;47.620;12.188;2024-03-23T15:14:46;4.50;;;2.03;;
34828;SDS011;21042;47.620;12.188;2024-03-23T15:17:12;3.95;;;1.50;;
34828;SDS011;21042;47.620;12.188;2024-03-23T15:19:38;4.47;;;1.60;;
34828;SDS011;21042;47.620;12.188;2024-03-23T15:22:04;4.32;;;1.95;;
34828;SDS011;21042;47.620;12.188;2024-03-23T15:24:30;4.55;;;2.47;;
34828;SDS011;21042;47.620;12.188;2024-03-23T15:26:57;2.90;;;1.20;;
34828;SDS011;21042;47.620;12.188;2024-03-23T15:29:22;2.45;;;1.30;;
34828;SDS011;21042;47.620;12.188;2024-03-23T15:31:48;3.60;;;1.67;;
34828;SDS011;21042;47.620;12.188;2024-03-23T15:34:20;11.25;;;6.00;;
34828;SDS011;21042;47.620;12.188;2024-03-23T15:36:49;10.40;;;5.25;;
34828;SDS011;21042;47.620;12.188;2024-03-23T15:39:18;2.70;;;1.60;;
34828;SDS011;21042;47.620;12.188;2024-03-23T15:41:45;9.82;;;5.43;;
34828;SDS011;21042;47.620;12.188;2024-03-23T15:44:11;10.87;;;5.43;;
34828;SDS011;21042;47.620;12.188;2024-03-23T15:46:37;11.23;;;6.50;;
34828;SDS011;21042;47.620;12.188;2024-03-23T15:49:03;12.70;;;7.95;;
34828;SDS011;21042;47.620;12.188;2024-03-23T15:51:30;7.80;;;3.60;;
34828;SDS011;21042;47.620;12.188;2024-03-23T15:54:02;3.58;;;2.33;;
34828;SDS011;21042;47.620;12.188;2024-03-23T15:56:31;3.65;;;1.70;;
34828;SDS011;21042;47.620;12.188;2024-03-23T15:58:57;2.83;;;1.15;;
34828;SDS011;21042;47.620;12.188;2024-03-23T16:01:31;1.65;;;1.25;;
34828;SDS011;21042;47.620;12.188;2024-03-23T16:04:02;1.48;;;1.25;;
34828;SDS011;21042;47.620;12.188;2024-03-23T16:06:28;1.27;;;0.88;;
34828;SDS011;21042;47.620;12.188;2024-03-23T16:08:54;2.35;;;1.00;;
34828;SDS011;21042;47.620;12.188;2024-03-23T16:11:19;1.63;;;1.00;;
34828;SDS011;21042;47.620;12.188;2024-03-23T16:13:45;1.73;;;1.10;;
34828;SDS011;21042;47.620;12.188;2024-03-23T16:16:11;3.65;;;1.10;;
34828;SDS011;21042;47.620;12.188;2024-03-23T16:18:37;5.20;;;1.45;;
34828;SDS011;21042;47.620;12.188;2024-03-23T16:21:07;7.25;;;1.70;;
34828;SDS011;21042;47.620;12.188;2024-03-23T16:23:33;4.30;;;1.60;;